sensor_id;sensor_type;location;lat;lon;timestamp;temperature;humidity
20957;DHT22;10637;47.970;7.830;2023-07-20T00:02:27;24.00;96.40
20957;DHT22;10637;47.970;7.830;2023-07-20T00:07:29;24.10;96.50
20957;DHT22;10637;47.970;7.830;2023-07-20T00:12:31;24.20;96.00
20957;DHT22;10637;47.970;7.830;2023-07-20T00:17:33;24.00;97.70
20957;DHT22;10637;47.970;7.830;2023-07-20T00:22:35;23.70;97.90
20957;DHT22;10637;47.970;7.830;2023-07-20T00:27:37;23.50;98.40
20957;DHT22;10637;47.970;7.830;2023-07-20T00:32:39;23.40;99.30
20957;DHT22;10637;47.970;7.830;2023-07-20T00:37:41;23.20;99.60
20957;DHT22;10637;47.970;7.830;2023-07-20T00:42:42;23.20;98.90
20957;DHT22;10637;47.970;7.830;2023-07-20T00:47:44;23.50;99.90
20957;DHT22;10637;47.970;7.830;2023-07-20T00:52:46;23.40;99.90
20957;DHT22;10637;47.970;7.830;2023-07-20T00:57:48;23.10;99.90
20957;DHT22;10637;47.970;7.830;2023-07-20T01:02:51;23.10;99.90
20957;DHT22;10637;47.970;7.830;2023-07-20T01:07:58;23.20;99.90
20957;DHT22;10637;47.970;7.830;2023-07-20T01:13:00;23.10;99.90
20957;DHT22;10637;47.970;7.830;2023-07-20T01:18:03;23.10;99.90
20957;DHT22;10637;47.970;7.830;2023-07-20T01:33:50;22.60;99.90
20957;DHT22;10637;47.970;7.830;2023-07-20T01:38:54;22.50;99.90
20957;DHT22;10637;47.970;7.830;2023-07-20T01:43:58;22.70;99.90
20957;DHT22;10637;47.970;7.830;2023-07-20T01:49:00;22.50;99.90
20957;DHT22;10637;47.970;7.830;2023-07-20T01:54:02;22.60;99.90
20957;DHT22;10637;47.970;7.830;2023-07-20T01:59:04;22.50;99.90
20957;DHT22;10637;47.970;7.830;2023-07-20T02:04:06;22.50;99.90
20957;DHT22;10637;47.970;7.830;2023-07-20T02:09:08;22.40;99.90
20957;DHT22;10637;47.970;7.830;2023-07-20T02:14:09;22.30;99.90
20957;DHT22;10637;47.970;7.830;2023-07-20T02:19:14;22.30;99.90
20957;DHT22;10637;47.970;7.830;2023-07-20T02:24:16;22.20;99.90
20957;DHT22;10637;47.970;7.830;2023-07-20T02:29:17;22.20;99.90
20957;DHT22;10637;47.970;7.830;2023-07-20T02:34:19;21.90;99.90
20957;DHT22;10637;47.970;7.830;2023-07-20T02:39:21;21.70;99.90
20957;DHT22;10637;47.970;7.830;2023-07-20T02:44:23;21.70;99.90
20957;DHT22;10637;47.970;7.830;2023-07-20T02:49:25;21.70;99.90
20957;DHT22;10637;47.970;7.830;2023-07-20T02:54:29;21.50;99.90
20957;DHT22;10637;47.970;7.830;2023-07-20T02:59:32;21.40;99.90
20957;DHT22;10637;47.970;7.830;2023-07-20T03:04:34;21.70;99.90
20957;DHT22;10637;47.970;7.830;2023-07-20T03:09:35;21.70;99.90
20957;DHT22;10637;47.970;7.830;2023-07-20T03:14:37;21.60;99.90
20957;DHT22;10637;47.970;7.830;2023-07-20T03:19:39;21.20;99.90
20957;DHT22;10637;47.970;7.830;2023-07-20T03:24:41;21.40;99.90
20957;DHT22;10637;47.970;7.830;2023-07-20T03:29:43;21.30;99.90
20957;DHT22;10637;47.970;7.830;2023-07-20T03:34:45;21.00;99.90
20957;DHT22;10637;47.970;7.830;2023-07-20T03:39:47;21.00;99.90
20957;DHT22;10637;47.970;7.830;2023-07-20T03:44:49;21.00;99.90
20957;DHT22;10637;47.970;7.830;2023-07-20T03:49:52;21.20;99.90
20957;DHT22;10637;47.970;7.830;2023-07-20T03:54:54;21.20;99.90
20957;DHT22;10637;47.970;7.830;2023-07-20T03:59:56;21.30;99.90
20957;DHT22;10637;47.970;7.830;2023-07-20T04:04:58;21.30;99.90
20957;DHT22;10637;47.970;7.830;2023-07-20T04:09:59;21.10;99.90
20957;DHT22;10637;47.970;7.830;2023-07-20T04:15:01;20.80;99.90
20957;DHT22;10637;47.970;7.830;2023-07-20T04:20:05;20.90;99.90
20957;DHT22;10637;47.970;7.830;2023-07-20T04:25:08;20.80;99.90
20957;DHT22;10637;47.970;7.830;2023-07-20T04:30:10;20.60;99.90
20957;DHT22;10637;47.970;7.830;2023-07-20T04:35:54;20.90;99.90
20957;DHT22;10637;47.970;7.830;2023-07-20T04:40:56;20.20;99.90
20957;DHT22;10637;47.970;7.830;2023-07-20T04:45:58;20.10;99.90
20957;DHT22;10637;47.970;7.830;2023-07-20T04:51:00;20.70;99.90
20957;DHT22;10637;47.970;7.830;2023-07-20T04:56:02;20.60;99.90
20957;DHT22;10637;47.970;7.830;2023-07-20T05:01:04;20.70;99.90
20957;DHT22;10637;47.970;7.830;2023-07-20T05:06:06;20.90;99.90
20957;DHT22;10637;47.970;7.830;2023-07-20T05:11:07;21.30;99.90
20957;DHT22;10637;47.970;7.830;2023-07-20T05:16:10;21.50;99.90
20957;DHT22;10637;47.970;7.830;2023-07-20T05:21:12;21.10;99.90
20957;DHT22;10637;47.970;7.830;2023-07-20T05:26:13;21.00;99.90
20957;DHT22;10637;47.970;7.830;2023-07-20T05:31:15;20.30;99.90
20957;DHT22;10637;47.970;7.830;2023-07-20T05:36:17;20.80;99.90
20957;DHT22;10637;47.970;7.830;2023-07-20T05:41:19;21.00;99.90
20957;DHT22;10637;47.970;7.830;2023-07-20T05:46:21;21.40;99.90
20957;DHT22;10637;47.970;7.830;2023-07-20T05:51:23;21.10;99.90
20957;DHT22;10637;47.970;7.830;2023-07-20T05:56:25;21.10;99.90
20957;DHT22;10637;47.970;7.830;2023-07-20T06:01:27;21.10;99.90
20957;DHT22;10637;47.970;7.830;2023-07-20T06:06:30;21.40;99.90
20957;DHT22;10637;47.970;7.830;2023-07-20T06:11:32;21.50;99.90
20957;DHT22;10637;47.970;7.830;2023-07-20T06:16:33;21.70;99.90
20957;DHT22;10637;47.970;7.830;2023-07-20T06:21:35;21.70;99.90
20957;DHT22;10637;47.970;7.830;2023-07-20T06:26:37;21.50;99.90
20957;DHT22;10637;47.970;7.830;2023-07-20T06:31:42;21.70;99.90
20957;DHT22;10637;47.970;7.830;2023-07-20T06:36:44;22.20;99.90
20957;DHT22;10637;47.970;7.830;2023-07-20T06:41:45;22.60;99.90
20957;DHT22;10637;47.970;7.830;2023-07-20T06:46:47;23.00;99.90
20957;DHT22;10637;47.970;7.830;2023-07-20T06:51:49;23.40;99.90
20957;DHT22;10637;47.970;7.830;2023-07-20T06:56:51;23.50;99.90
20957;DHT22;10637;47.970;7.830;2023-07-20T07:01:55;23.70;99.90
20957;DHT22;10637;47.970;7.830;2023-07-20T07:06:57;24.20;99.90
20957;DHT22;10637;47.970;7.830;2023-07-20T07:11:59;24.60;99.90
20957;DHT22;10637;47.970;7.830;2023-07-20T07:17:02;24.90;99.90
20957;DHT22;10637;47.970;7.830;2023-07-20T07:22:06;24.80;99.90
20957;DHT22;10637;47.970;7.830;2023-07-20T07:27:08;25.20;99.40
20957;DHT22;10637;47.970;7.830;2023-07-20T07:32:10;25.40;99.40
20957;DHT22;10637;47.970;7.830;2023-07-20T07:37:13;25.60;99.10
20957;DHT22;10637;47.970;7.830;2023-07-20T07:42:15;25.50;99.60
20957;DHT22;10637;47.970;7.830;2023-07-20T07:47:16;25.80;99.50
20957;DHT22;10637;47.970;7.830;2023-07-20T07:52:18;26.20;98.20
20957;DHT22;10637;47.970;7.830;2023-07-20T07:57:20;26.10;98.00
20957;DHT22;10637;47.970;7.830;2023-07-20T08:02:22;26.40;97.30
20957;DHT22;10637;47.970;7.830;2023-07-20T08:07:24;26.60;97.10
20957;DHT22;10637;47.970;7.830;2023-07-20T08:12:26;26.70;96.50
20957;DHT22;10637;47.970;7.830;2023-07-20T08:17:27;26.70;96.50
20957;DHT22;10637;47.970;7.830;2023-07-20T08:22:29;26.70;96.10
20957;DHT22;10637;47.970;7.830;2023-07-20T08:27:31;26.90;97.10
20957;DHT22;10637;47.970;7.830;2023-07-20T08:32:33;26.80;95.10
20957;DHT22;10637;47.970;7.830;2023-07-20T08:37:35;26.80;95.90
20957;DHT22;10637;47.970;7.830;2023-07-20T08:42:37;26.90;96.00
20957;DHT22;10637;47.970;7.830;2023-07-20T08:47:41;27.00;96.00
20957;DHT22;10637;47.970;7.830;2023-07-20T08:52:43;27.20;96.40
20957;DHT22;10637;47.970;7.830;2023-07-20T08:57:46;27.10;95.00
20957;DHT22;10637;47.970;7.830;2023-07-20T09:02:53;27.10;95.10
20957;DHT22;10637;47.970;7.830;2023-07-20T09:07:56;27.10;94.70
20957;DHT22;10637;47.970;7.830;2023-07-20T09:12:57;27.50;95.30
20957;DHT22;10637;47.970;7.830;2023-07-20T09:18:01;28.00;95.10
20957;DHT22;10637;47.970;7.830;2023-07-20T09:23:06;28.50;95.20
20957;DHT22;10637;47.970;7.830;2023-07-20T09:28:08;28.60;92.90
20957;DHT22;10637;47.970;7.830;2023-07-20T09:33:21;28.90;93.50
20957;DHT22;10637;47.970;7.830;2023-07-20T09:38:26;28.90;91.80
20957;DHT22;10637;47.970;7.830;2023-07-20T09:43:29;29.10;92.90
20957;DHT22;10637;47.970;7.830;2023-07-20T09:48:32;29.50;93.20
20957;DHT22;10637;47.970;7.830;2023-07-20T09:53:54;29.60;91.80
20957;DHT22;10637;47.970;7.830;2023-07-20T09:58:56;29.60;92.00
20957;DHT22;10637;47.970;7.830;2023-07-20T10:03:59;29.40;90.60
20957;DHT22;10637;47.970;7.830;2023-07-20T10:09:03;28.70;91.90
20957;DHT22;10637;47.970;7.830;2023-07-20T10:14:06;28.60;92.70
20957;DHT22;10637;47.970;7.830;2023-07-20T10:19:25;29.30;92.60
20957;DHT22;10637;47.970;7.830;2023-07-20T10:24:28;29.00;90.20
20957;DHT22;10637;47.970;7.830;2023-07-20T10:29:32;28.90;92.60
20957;DHT22;10637;47.970;7.830;2023-07-20T10:34:34;29.70;91.00
20957;DHT22;10637;47.970;7.830;2023-07-20T10:39:36;30.30;90.60
20957;DHT22;10637;47.970;7.830;2023-07-20T10:44:39;30.20;88.80
20957;DHT22;10637;47.970;7.830;2023-07-20T10:50:01;30.60;90.50
20957;DHT22;10637;47.970;7.830;2023-07-20T10:55:13;31.00;90.00
20957;DHT22;10637;47.970;7.830;2023-07-20T11:00:19;30.20;84.10
20957;DHT22;10637;47.970;7.830;2023-07-20T11:05:38;29.50;91.40
20957;DHT22;10637;47.970;7.830;2023-07-20T11:10:41;30.00;90.30
20957;DHT22;10637;47.970;7.830;2023-07-20T11:16:02;30.60;88.70
20957;DHT22;10637;47.970;7.830;2023-07-20T11:21:08;30.50;81.00
20957;DHT22;10637;47.970;7.830;2023-07-20T11:26:11;30.60;90.10
20957;DHT22;10637;47.970;7.830;2023-07-20T11:31:14;31.40;88.00
20957;DHT22;10637;47.970;7.830;2023-07-20T11:36:18;31.50;88.70
20957;DHT22;10637;47.970;7.830;2023-07-20T11:41:23;31.10;86.60
20957;DHT22;10637;47.970;7.830;2023-07-20T11:46:27;30.90;87.60
20957;DHT22;10637;47.970;7.830;2023-07-20T11:51:29;30.40;85.00
20957;DHT22;10637;47.970;7.830;2023-07-20T11:56:31;31.10;85.30
20957;DHT22;10637;47.970;7.830;2023-07-20T12:01:33;31.30;88.70
20957;DHT22;10637;47.970;7.830;2023-07-20T12:06:37;31.80;87.60
20957;DHT22;10637;47.970;7.830;2023-07-20T12:11:39;32.30;83.60
20957;DHT22;10637;47.970;7.830;2023-07-20T12:16:40;32.30;85.60
20957;DHT22;10637;47.970;7.830;2023-07-20T12:21:42;32.10;84.10
20957;DHT22;10637;47.970;7.830;2023-07-20T12:26:44;31.40;85.50
20957;DHT22;10637;47.970;7.830;2023-07-20T12:31:46;31.90;84.10
20957;DHT22;10637;47.970;7.830;2023-07-20T12:36:48;31.60;82.70
20957;DHT22;10637;47.970;7.830;2023-07-20T12:41:50;31.80;86.00
20957;DHT22;10637;47.970;7.830;2023-07-20T12:46:52;32.50;85.10
20957;DHT22;10637;47.970;7.830;2023-07-20T12:51:54;33.20;82.30
20957;DHT22;10637;47.970;7.830;2023-07-20T12:56:55;33.30;82.20
20957;DHT22;10637;47.970;7.830;2023-07-20T13:02:00;32.90;83.70
20957;DHT22;10637;47.970;7.830;2023-07-20T13:07:02;33.40;76.20
20957;DHT22;10637;47.970;7.830;2023-07-20T13:12:24;32.50;80.70
20957;DHT22;10637;47.970;7.830;2023-07-20T13:17:26;32.00;83.50
20957;DHT22;10637;47.970;7.830;2023-07-20T13:22:28;32.60;82.50
20957;DHT22;10637;47.970;7.830;2023-07-20T13:27:31;32.30;74.70
20957;DHT22;10637;47.970;7.830;2023-07-20T13:32:33;31.80;77.50
20957;DHT22;10637;47.970;7.830;2023-07-20T13:37:36;31.10;78.90
20957;DHT22;10637;47.970;7.830;2023-07-20T13:42:39;32.00;83.20
20957;DHT22;10637;47.970;7.830;2023-07-20T13:47:42;32.80;82.40
20957;DHT22;10637;47.970;7.830;2023-07-20T13:52:47;33.30;80.30
20957;DHT22;10637;47.970;7.830;2023-07-20T13:57:49;33.70;79.50
20957;DHT22;10637;47.970;7.830;2023-07-20T14:02:53;33.80;75.70
20957;DHT22;10637;47.970;7.830;2023-07-20T14:07:57;33.30;76.40
20957;DHT22;10637;47.970;7.830;2023-07-20T14:12:59;33.10;81.10
20957;DHT22;10637;47.970;7.830;2023-07-20T14:18:01;33.30;78.40
20957;DHT22;10637;47.970;7.830;2023-07-20T14:23:03;33.50;76.90
20957;DHT22;10637;47.970;7.830;2023-07-20T14:28:05;33.30;75.30
20957;DHT22;10637;47.970;7.830;2023-07-20T14:33:07;32.70;77.30
20957;DHT22;10637;47.970;7.830;2023-07-20T14:38:08;31.80;78.30
20957;DHT22;10637;47.970;7.830;2023-07-20T14:43:11;32.00;78.30
20957;DHT22;10637;47.970;7.830;2023-07-20T14:48:13;32.50;77.80
20957;DHT22;10637;47.970;7.830;2023-07-20T14:53:15;32.80;80.20
20957;DHT22;10637;47.970;7.830;2023-07-20T14:58:19;33.00;80.50
20957;DHT22;10637;47.970;7.830;2023-07-20T15:03:22;33.20;78.20
20957;DHT22;10637;47.970;7.830;2023-07-20T15:08:25;33.40;80.20
20957;DHT22;10637;47.970;7.830;2023-07-20T15:13:26;33.30;78.40
20957;DHT22;10637;47.970;7.830;2023-07-20T15:18:28;33.10;79.10
20957;DHT22;10637;47.970;7.830;2023-07-20T15:23:48;32.60;79.40
20957;DHT22;10637;47.970;7.830;2023-07-20T15:28:50;32.90;78.20
20957;DHT22;10637;47.970;7.830;2023-07-20T15:33:52;32.90;76.40
20957;DHT22;10637;47.970;7.830;2023-07-20T15:38:54;33.00;76.20
20957;DHT22;10637;47.970;7.830;2023-07-20T15:43:56;32.70;77.30
20957;DHT22;10637;47.970;7.830;2023-07-20T15:48:57;32.60;77.90
20957;DHT22;10637;47.970;7.830;2023-07-20T15:53:59;32.30;75.80
20957;DHT22;10637;47.970;7.830;2023-07-20T15:59:01;31.40;78.60
20957;DHT22;10637;47.970;7.830;2023-07-20T16:04:03;31.70;78.50
20957;DHT22;10637;47.970;7.830;2023-07-20T16:09:05;32.20;78.90
20957;DHT22;10637;47.970;7.830;2023-07-20T16:14:07;32.40;75.80
20957;DHT22;10637;47.970;7.830;2023-07-20T16:19:09;32.50;77.40
20957;DHT22;10637;47.970;7.830;2023-07-20T16:24:11;32.50;78.70
20957;DHT22;10637;47.970;7.830;2023-07-20T16:29:13;32.50;79.50
20957;DHT22;10637;47.970;7.830;2023-07-20T16:34:18;32.30;77.50
20957;DHT22;10637;47.970;7.830;2023-07-20T16:39:20;31.90;78.00
20957;DHT22;10637;47.970;7.830;2023-07-20T16:44:25;31.50;75.40
20957;DHT22;10637;47.970;7.830;2023-07-20T16:49:26;31.40;76.80
20957;DHT22;10637;47.970;7.830;2023-07-20T16:54:28;31.40;78.20
20957;DHT22;10637;47.970;7.830;2023-07-20T16:59:31;31.50;77.20
20957;DHT22;10637;47.970;7.830;2023-07-20T17:04:33;31.30;77.50
20957;DHT22;10637;47.970;7.830;2023-07-20T17:09:35;31.50;78.70
20957;DHT22;10637;47.970;7.830;2023-07-20T17:14:36;31.40;77.10
20957;DHT22;10637;47.970;7.830;2023-07-20T17:19:39;30.70;76.30
20957;DHT22;10637;47.970;7.830;2023-07-20T17:24:41;30.30;78.70
20957;DHT22;10637;47.970;7.830;2023-07-20T17:29:45;30.50;77.00
20957;DHT22;10637;47.970;7.830;2023-07-20T17:34:47;30.20;78.50
20957;DHT22;10637;47.970;7.830;2023-07-20T17:39:52;29.90;78.80
20957;DHT22;10637;47.970;7.830;2023-07-20T17:44:57;30.00;77.70
20957;DHT22;10637;47.970;7.830;2023-07-20T17:49:59;29.90;79.60
20957;DHT22;10637;47.970;7.830;2023-07-20T17:55:01;29.90;77.90
20957;DHT22;10637;47.970;7.830;2023-07-20T18:00:03;29.50;81.10
20957;DHT22;10637;47.970;7.830;2023-07-20T18:05:09;29.10;79.40
20957;DHT22;10637;47.970;7.830;2023-07-20T18:10:11;28.90;80.50
20957;DHT22;10637;47.970;7.830;2023-07-20T18:15:13;28.70;80.50
20957;DHT22;10637;47.970;7.830;2023-07-20T18:20:14;28.40;80.90
20957;DHT22;10637;47.970;7.830;2023-07-20T18:25:17;28.10;83.10
20957;DHT22;10637;47.970;7.830;2023-07-20T18:30:19;27.80;82.50
20957;DHT22;10637;47.970;7.830;2023-07-20T18:35:20;27.70;82.20
20957;DHT22;10637;47.970;7.830;2023-07-20T18:40:23;27.40;82.80
20957;DHT22;10637;47.970;7.830;2023-07-20T18:45:25;27.20;83.10
20957;DHT22;10637;47.970;7.830;2023-07-20T18:50:31;27.00;83.90
20957;DHT22;10637;47.970;7.830;2023-07-20T18:55:33;26.90;85.40
20957;DHT22;10637;47.970;7.830;2023-07-20T19:00:37;26.70;84.90
20957;DHT22;10637;47.970;7.830;2023-07-20T19:05:39;26.60;84.50
20957;DHT22;10637;47.970;7.830;2023-07-20T19:10:46;26.40;85.00
20957;DHT22;10637;47.970;7.830;2023-07-20T19:15:51;26.30;85.70
20957;DHT22;10637;47.970;7.830;2023-07-20T19:20:54;26.30;89.50
20957;DHT22;10637;47.970;7.830;2023-07-20T19:25:55;25.80;91.40
20957;DHT22;10637;47.970;7.830;2023-07-20T19:30:57;25.70;92.60
20957;DHT22;10637;47.970;7.830;2023-07-20T19:35:59;24.80;94.20
20957;DHT22;10637;47.970;7.830;2023-07-20T19:41:01;24.60;94.00
20957;DHT22;10637;47.970;7.830;2023-07-20T19:46:06;24.30;94.80
20957;DHT22;10637;47.970;7.830;2023-07-20T19:51:07;24.30;94.70
20957;DHT22;10637;47.970;7.830;2023-07-20T19:56:09;24.10;95.30
20957;DHT22;10637;47.970;7.830;2023-07-20T20:01:11;24.20;95.10
20957;DHT22;10637;47.970;7.830;2023-07-20T20:06:16;23.60;96.30
20957;DHT22;10637;47.970;7.830;2023-07-20T20:11:18;23.40;96.20
20957;DHT22;10637;47.970;7.830;2023-07-20T20:16:20;23.40;96.30
20957;DHT22;10637;47.970;7.830;2023-07-20T20:21:21;23.10;96.80
20957;DHT22;10637;47.970;7.830;2023-07-20T20:26:24;23.20;96.60
20957;DHT22;10637;47.970;7.830;2023-07-20T20:31:26;23.20;96.80
20957;DHT22;10637;47.970;7.830;2023-07-20T20:36:28;23.20;96.70
20957;DHT22;10637;47.970;7.830;2023-07-20T20:41:30;23.10;98.10
20957;DHT22;10637;47.970;7.830;2023-07-20T20:46:32;22.90;97.40
20957;DHT22;10637;47.970;7.830;2023-07-20T20:51:33;22.90;97.60
20957;DHT22;10637;47.970;7.830;2023-07-20T20:56:35;22.90;98.10
20957;DHT22;10637;47.970;7.830;2023-07-20T21:01:37;22.50;98.50
20957;DHT22;10637;47.970;7.830;2023-07-20T21:06:40;22.00;99.60
20957;DHT22;10637;47.970;7.830;2023-07-20T21:11:42;21.90;99.50
20957;DHT22;10637;47.970;7.830;2023-07-20T21:16:43;22.00;99.30
20957;DHT22;10637;47.970;7.830;2023-07-20T21:21:45;21.90;99.30
20957;DHT22;10637;47.970;7.830;2023-07-20T21:26:47;22.10;99.30
20957;DHT22;10637;47.970;7.830;2023-07-20T21:31:49;22.10;99.30
20957;DHT22;10637;47.970;7.830;2023-07-20T21:36:51;22.00;99.40
20957;DHT22;10637;47.970;7.830;2023-07-20T21:41:52;21.70;99.90
20957;DHT22;10637;47.970;7.830;2023-07-20T21:46:54;21.80;99.80
20957;DHT22;10637;47.970;7.830;2023-07-20T21:51:56;21.60;99.90
20957;DHT22;10637;47.970;7.830;2023-07-20T21:56:58;21.60;99.90
20957;DHT22;10637;47.970;7.830;2023-07-20T22:02:00;21.50;99.90
20957;DHT22;10637;47.970;7.830;2023-07-20T22:07:03;21.30;99.90
20957;DHT22;10637;47.970;7.830;2023-07-20T22:12:05;21.40;99.90
20957;DHT22;10637;47.970;7.830;2023-07-20T22:17:10;21.40;99.90
20957;DHT22;10637;47.970;7.830;2023-07-20T22:22:19;21.30;99.90
20957;DHT22;10637;47.970;7.830;2023-07-20T22:27:20;21.30;99.90
20957;DHT22;10637;47.970;7.830;2023-07-20T22:32:22;21.20;99.90
20957;DHT22;10637;47.970;7.830;2023-07-20T22:37:24;20.60;99.90
20957;DHT22;10637;47.970;7.830;2023-07-20T22:42:27;20.60;99.90
20957;DHT22;10637;47.970;7.830;2023-07-20T22:47:29;20.80;99.90
20957;DHT22;10637;47.970;7.830;2023-07-20T22:52:31;20.70;99.90
20957;DHT22;10637;47.970;7.830;2023-07-20T22:57:33;20.90;99.90
20957;DHT22;10637;47.970;7.830;2023-07-20T23:02:35;20.40;99.90
20957;DHT22;10637;47.970;7.830;2023-07-20T23:07:44;20.90;99.90
20957;DHT22;10637;47.970;7.830;2023-07-20T23:12:45;21.20;99.90
20957;DHT22;10637;47.970;7.830;2023-07-20T23:17:47;21.20;99.90
20957;DHT22;10637;47.970;7.830;2023-07-20T23:22:50;21.30;99.90
20957;DHT22;10637;47.970;7.830;2023-07-20T23:27:53;21.10;99.90
20957;DHT22;10637;47.970;7.830;2023-07-20T23:32:57;20.60;99.90
20957;DHT22;10637;47.970;7.830;2023-07-20T23:37:59;20.70;99.90
20957;DHT22;10637;47.970;7.830;2023-07-20T23:43:02;20.70;99.90
20957;DHT22;10637;47.970;7.830;2023-07-20T23:48:07;20.80;99.90
20957;DHT22;10637;47.970;7.830;2023-07-20T23:53:13;20.80;99.90
20957;DHT22;10637;47.970;7.830;2023-07-20T23:58:15;20.90;99.90
